AHR YPAD-YPIR
Flight info
| Callsign | AHR |
|---|---|
| Flight time | 0h 40m |
| Altitude | 6500 |
| Route | WHPL BWMS |
| Aircraft | AEST/L-VGD/A |
Departure
| Time | 2026-05-05 06:07 |
|---|---|
| Airport | Adelaide International Airport (YPAD) |
Arrival
| Time | 2026-05-05 06:47 |
|---|---|
| Airport | Port Pirie Airport (YPIR) |
| Time | Latitude | Longitude | Altitude | Speed | Heading |
|---|---|---|---|---|---|
| 2026-05-05 05:43 | -34.93909 | 138.53103 | 19 ft | 0 kts | 46° |
| 2026-05-05 05:56 | -34.93900 | 138.53113 | 19 ft | 6 kts | 43° |
| 2026-05-05 05:56 | -34.93879 | 138.53122 | 18 ft | 8 kts | 354° |
| 2026-05-05 05:56 | -34.93855 | 138.53103 | 17 ft | 12 kts | 292° |
| 2026-05-05 05:56 | -34.93852 | 138.53086 | 17 ft | 0 kts | 266° |
| 2026-05-05 05:57 | -34.93860 | 138.53069 | 17 ft | 9 kts | 226° |
| 2026-05-05 05:57 | -34.93907 | 138.53005 | 17 ft | 11 kts | 230° |
| 2026-05-05 05:57 | -34.93972 | 138.52958 | 17 ft | 12 kts | 188° |
| 2026-05-05 05:57 | -34.94056 | 138.52937 | 17 ft | 13 kts | 188° |
| 2026-05-05 05:58 | -34.94121 | 138.52925 | 17 ft | 10 kts | 186° |
| 2026-05-05 05:58 | -34.94191 | 138.52935 | 18 ft | 11 kts | 173° |
| 2026-05-05 05:58 | -34.94271 | 138.52920 | 18 ft | 12 kts | 189° |
| 2026-05-05 05:58 | -34.94346 | 138.52938 | 18 ft | 10 kts | 149° |
| 2026-05-05 05:59 | -34.94396 | 138.53007 | 18 ft | 13 kts | 123° |
| 2026-05-05 05:59 | -34.94431 | 138.53072 | 18 ft | 3 kts | 121° |
| 2026-05-05 05:59 | -34.94459 | 138.53125 | 18 ft | 10 kts | 125° |
| 2026-05-05 05:59 | -34.94503 | 138.53204 | 18 ft | 12 kts | 123° |
| 2026-05-05 06:00 | -34.94514 | 138.53310 | 18 ft | 14 kts | 75° |
| 2026-05-05 06:00 | -34.94495 | 138.53402 | 17 ft | 13 kts | 124° |
| 2026-05-05 06:00 | -34.94530 | 138.53454 | 16 ft | 0 kts | 127° |
| 2026-05-05 06:00 | -34.94540 | 138.53465 | 16 ft | 0 kts | 190° |
| 2026-05-05 06:05 | -34.94547 | 138.53468 | 16 ft | 4 kts | 131° |
| 2026-05-05 06:05 | -34.94575 | 138.53521 | 16 ft | 13 kts | 144° |
| 2026-05-05 06:05 | -34.94621 | 138.53514 | 17 ft | 0 kts | 224° |
| 2026-05-05 06:06 | -34.94725 | 138.53367 | 18 ft | 63 kts | 232° |
| 2026-05-05 06:06 | -34.95104 | 138.52801 | 126 ft | 89 kts | 232° |
| 2026-05-05 06:07 | -34.95449 | 138.52220 | 435 ft | 83 kts | 233° |
| 2026-05-05 06:07 | -34.95768 | 138.51617 | 733 ft | 93 kts | 244° |
| 2026-05-05 06:07 | -34.95784 | 138.50766 | 1019 ft | 112 kts | 296° |
| 2026-05-05 06:07 | -34.95203 | 138.50111 | 1458 ft | 124 kts | 328° |
| 2026-05-05 06:08 | -34.94388 | 138.49627 | 1911 ft | 133 kts | 333° |
| 2026-05-05 06:08 | -34.93607 | 138.49187 | 2427 ft | 132 kts | 332° |
| 2026-05-05 06:08 | -34.92712 | 138.48952 | 2859 ft | 139 kts | 352° |
| 2026-05-05 06:08 | -34.91753 | 138.48925 | 3383 ft | 138 kts | 356° |
| 2026-05-05 06:09 | -34.90778 | 138.48935 | 3846 ft | 141 kts | 354° |
| 2026-05-05 06:09 | -34.89815 | 138.48770 | 4342 ft | 139 kts | 339° |
| 2026-05-05 06:09 | -34.88978 | 138.48164 | 4688 ft | 145 kts | 321° |
| 2026-05-05 06:09 | -34.88019 | 138.47678 | 5036 ft | 146 kts | 343° |
| 2026-05-05 06:10 | -34.87093 | 138.47446 | 5669 ft | 132 kts | 343° |
| 2026-05-05 06:10 | -34.86145 | 138.47127 | 5869 ft | 147 kts | 346° |
| 2026-05-05 06:10 | -34.85179 | 138.46950 | 6376 ft | 139 kts | 347° |
| 2026-05-05 06:10 | -34.84169 | 138.46718 | 6509 ft | 158 kts | 344° |
| 2026-05-05 06:11 | -34.83034 | 138.46363 | 6493 ft | 178 kts | 341° |
| 2026-05-05 06:11 | -34.81798 | 138.45885 | 6447 ft | 194 kts | 339° |
| 2026-05-05 06:11 | -34.80478 | 138.45331 | 6382 ft | 205 kts | 338° |
| 2026-05-05 06:11 | -34.79124 | 138.44750 | 6482 ft | 204 kts | 338° |
| 2026-05-05 06:12 | -34.77794 | 138.44195 | 6644 ft | 203 kts | 339° |
| 2026-05-05 06:12 | -34.76429 | 138.43682 | 6665 ft | 207 kts | 340° |
| 2026-05-05 06:12 | -34.75057 | 138.43181 | 6799 ft | 204 kts | 341° |
| 2026-05-05 06:12 | -34.73693 | 138.42686 | 6879 ft | 205 kts | 341° |
| 2026-05-05 06:13 | -34.72335 | 138.42190 | 6942 ft | 206 kts | 341° |
| 2026-05-05 06:13 | -34.70966 | 138.41692 | 7039 ft | 205 kts | 341° |
| 2026-05-05 06:13 | -34.69598 | 138.41195 | 7096 ft | 205 kts | 341° |
| 2026-05-05 06:13 | -34.69084 | 138.41005 | 7117 ft | 206 kts | 341° |
| 2026-05-05 06:14 | -34.67772 | 138.40531 | 7181 ft | 206 kts | 341° |
| 2026-05-05 06:14 | -34.66404 | 138.40019 | 7249 ft | 206 kts | 341° |
| 2026-05-05 06:14 | -34.65035 | 138.39506 | 7298 ft | 206 kts | 341° |
| 2026-05-05 06:14 | -34.63657 | 138.39000 | 7376 ft | 206 kts | 341° |
| 2026-05-05 06:15 | -34.62286 | 138.38493 | 7435 ft | 206 kts | 341° |
| 2026-05-05 06:15 | -34.60926 | 138.37986 | 7423 ft | 209 kts | 341° |
| 2026-05-05 06:15 | -34.59475 | 138.37468 | 7131 ft | 223 kts | 341° |
| 2026-05-05 06:15 | -34.58077 | 138.36919 | 6996 ft | 205 kts | 339° |
| 2026-05-05 06:16 | -34.56770 | 138.36377 | 6554 ft | 195 kts | 339° |
| 2026-05-05 06:16 | -34.55471 | 138.35914 | 6500 ft | 195 kts | 343° |
| 2026-05-05 06:16 | -34.54171 | 138.35498 | 6513 ft | 191 kts | 342° |
| 2026-05-05 06:16 | -34.52902 | 138.35080 | 6525 ft | 188 kts | 341° |
| 2026-05-05 06:17 | -34.51650 | 138.34639 | 6523 ft | 187 kts | 341° |
| 2026-05-05 06:17 | -34.50410 | 138.34183 | 6520 ft | 185 kts | 340° |
| 2026-05-05 06:17 | -34.49185 | 138.33722 | 6526 ft | 184 kts | 340° |
| 2026-05-05 06:17 | -34.47964 | 138.33259 | 6524 ft | 184 kts | 340° |
| 2026-05-05 06:18 | -34.46745 | 138.32793 | 6525 ft | 183 kts | 340° |
| 2026-05-05 06:18 | -34.45531 | 138.32327 | 6522 ft | 183 kts | 340° |
| 2026-05-05 06:18 | -34.44315 | 138.31872 | 6525 ft | 182 kts | 341° |
| 2026-05-05 06:18 | -34.43101 | 138.31427 | 6526 ft | 182 kts | 340° |
| 2026-05-05 06:19 | -34.41891 | 138.30980 | 6520 ft | 182 kts | 341° |
| 2026-05-05 06:19 | -34.40684 | 138.30529 | 6525 ft | 181 kts | 341° |
| 2026-05-05 06:19 | -34.39475 | 138.30085 | 6524 ft | 181 kts | 341° |
| 2026-05-05 06:19 | -34.38278 | 138.29660 | 6523 ft | 182 kts | 342° |
| 2026-05-05 06:20 | -34.37061 | 138.29249 | 6527 ft | 181 kts | 342° |
| 2026-05-05 06:20 | -34.35823 | 138.28954 | 6520 ft | 181 kts | 351° |
| 2026-05-05 06:20 | -34.34570 | 138.28762 | 6527 ft | 181 kts | 351° |
| 2026-05-05 06:20 | -34.33315 | 138.28573 | 6527 ft | 182 kts | 350° |
| 2026-05-05 06:21 | -34.32057 | 138.28390 | 6525 ft | 183 kts | 351° |
| 2026-05-05 06:21 | -34.30792 | 138.28203 | 6525 ft | 183 kts | 351° |
| 2026-05-05 06:21 | -34.29529 | 138.28016 | 6524 ft | 183 kts | 351° |
| 2026-05-05 06:21 | -34.28266 | 138.27833 | 6526 ft | 183 kts | 351° |
| 2026-05-05 06:22 | -34.27004 | 138.27647 | 6523 ft | 182 kts | 351° |
| 2026-05-05 06:22 | -34.25743 | 138.27464 | 6524 ft | 183 kts | 351° |
| 2026-05-05 06:22 | -34.24477 | 138.27276 | 6525 ft | 183 kts | 351° |
| 2026-05-05 06:22 | -34.23213 | 138.27091 | 6518 ft | 183 kts | 351° |
| 2026-05-05 06:23 | -34.21968 | 138.26908 | 6525 ft | 183 kts | 350° |
| 2026-05-05 06:23 | -34.20705 | 138.26722 | 6523 ft | 183 kts | 350° |
| 2026-05-05 06:23 | -34.19440 | 138.26539 | 6523 ft | 183 kts | 350° |
| 2026-05-05 06:23 | -34.18176 | 138.26352 | 6524 ft | 183 kts | 351° |
| 2026-05-05 06:24 | -34.16908 | 138.26164 | 6525 ft | 183 kts | 350° |
| 2026-05-05 06:24 | -34.15644 | 138.25977 | 6527 ft | 183 kts | 351° |
| 2026-05-05 06:24 | -34.14397 | 138.25798 | 6524 ft | 183 kts | 351° |
| 2026-05-05 06:24 | -34.13128 | 138.25616 | 6526 ft | 183 kts | 351° |
| 2026-05-05 06:25 | -34.11863 | 138.25434 | 6527 ft | 183 kts | 351° |
| 2026-05-05 06:25 | -34.10595 | 138.25252 | 6525 ft | 184 kts | 351° |
| 2026-05-05 06:25 | -34.09337 | 138.24983 | 6519 ft | 183 kts | 345° |
| 2026-05-05 06:25 | -34.08100 | 138.24621 | 6525 ft | 183 kts | 342° |
| 2026-05-05 06:26 | -34.06875 | 138.24210 | 6527 ft | 183 kts | 340° |
| 2026-05-05 06:26 | -34.05652 | 138.23789 | 6522 ft | 182 kts | 341° |
| 2026-05-05 06:26 | -34.04432 | 138.23365 | 6522 ft | 183 kts | 341° |
| 2026-05-05 06:26 | -34.03206 | 138.22950 | 6523 ft | 183 kts | 342° |
| 2026-05-05 06:27 | -34.02392 | 138.22683 | 6526 ft | 183 kts | 343° |
| 2026-05-05 06:27 | -33.99530 | 138.21800 | 6526 ft | 182 kts | 345° |
| 2026-05-05 06:27 | -33.98282 | 138.21451 | 6451 ft | 187 kts | 343° |
| 2026-05-05 06:28 | -33.97436 | 138.21211 | 6376 ft | 189 kts | 344° |
| 2026-05-05 06:28 | -33.96153 | 138.20850 | 6259 ft | 188 kts | 345° |
| 2026-05-05 06:28 | -33.94458 | 138.20357 | 6099 ft | 187 kts | 343° |
| 2026-05-05 06:28 | -33.93619 | 138.20108 | 6006 ft | 187 kts | 343° |
| 2026-05-05 06:29 | -33.92354 | 138.19729 | 5883 ft | 188 kts | 343° |
| 2026-05-05 06:29 | -33.91084 | 138.19344 | 5761 ft | 188 kts | 343° |
| 2026-05-05 06:29 | -33.89809 | 138.18967 | 5646 ft | 189 kts | 343° |
| 2026-05-05 06:29 | -33.88535 | 138.18582 | 5522 ft | 188 kts | 343° |
| 2026-05-05 06:30 | -33.87261 | 138.18201 | 5405 ft | 189 kts | 343° |
| 2026-05-05 06:30 | -33.86004 | 138.17824 | 5307 ft | 188 kts | 343° |
| 2026-05-05 06:30 | -33.84730 | 138.17442 | 5212 ft | 188 kts | 344° |
| 2026-05-05 06:30 | -33.83458 | 138.17063 | 5110 ft | 188 kts | 344° |
| 2026-05-05 06:31 | -33.82185 | 138.16680 | 5008 ft | 189 kts | 343° |
| 2026-05-05 06:31 | -33.80910 | 138.16299 | 4909 ft | 189 kts | 343° |
| 2026-05-05 06:31 | -33.79635 | 138.15917 | 4806 ft | 189 kts | 345° |
| 2026-05-05 06:31 | -33.78352 | 138.15543 | 4708 ft | 189 kts | 344° |
| 2026-05-05 06:32 | -33.77071 | 138.15167 | 4617 ft | 189 kts | 344° |
| 2026-05-05 06:32 | -33.75806 | 138.14794 | 4529 ft | 190 kts | 344° |
| 2026-05-05 06:32 | -33.74515 | 138.14411 | 4421 ft | 191 kts | 344° |
| 2026-05-05 06:32 | -33.73229 | 138.14016 | 4313 ft | 191 kts | 343° |
| 2026-05-05 06:33 | -33.71938 | 138.13635 | 4221 ft | 191 kts | 345° |
| 2026-05-05 06:33 | -33.70644 | 138.13266 | 4133 ft | 191 kts | 345° |
| 2026-05-05 06:33 | -33.69350 | 138.12889 | 4061 ft | 191 kts | 343° |
| 2026-05-05 06:33 | -33.68057 | 138.12503 | 3982 ft | 191 kts | 344° |
| 2026-05-05 06:34 | -33.66765 | 138.12113 | 3900 ft | 191 kts | 345° |
| 2026-05-05 06:34 | -33.65500 | 138.11732 | 3819 ft | 191 kts | 345° |
| 2026-05-05 06:34 | -33.64185 | 138.11348 | 3736 ft | 191 kts | 345° |
| 2026-05-05 06:34 | -33.62895 | 138.10965 | 3651 ft | 189 kts | 345° |
| 2026-05-05 06:35 | -33.61640 | 138.10597 | 3558 ft | 182 kts | 345° |
| 2026-05-05 06:35 | -33.60415 | 138.10241 | 3437 ft | 180 kts | 344° |
| 2026-05-05 06:35 | -33.59206 | 138.09884 | 3294 ft | 178 kts | 345° |
| 2026-05-05 06:35 | -33.57993 | 138.09525 | 3161 ft | 182 kts | 345° |
| 2026-05-05 06:36 | -33.56754 | 138.09157 | 3042 ft | 184 kts | 345° |
| 2026-05-05 06:36 | -33.55508 | 138.08786 | 2936 ft | 185 kts | 345° |
| 2026-05-05 06:36 | -33.54257 | 138.08415 | 2838 ft | 185 kts | 345° |
| 2026-05-05 06:36 | -33.53001 | 138.08042 | 2744 ft | 186 kts | 345° |
| 2026-05-05 06:37 | -33.51743 | 138.07674 | 2646 ft | 185 kts | 345° |
| 2026-05-05 06:37 | -33.50506 | 138.07313 | 2535 ft | 182 kts | 345° |
| 2026-05-05 06:37 | -33.49297 | 138.06961 | 2423 ft | 180 kts | 345° |
| 2026-05-05 06:37 | -33.48086 | 138.06606 | 2295 ft | 179 kts | 346° |
| 2026-05-05 06:38 | -33.46883 | 138.06253 | 2156 ft | 178 kts | 345° |
| 2026-05-05 06:38 | -33.45683 | 138.05900 | 2010 ft | 178 kts | 345° |
| 2026-05-05 06:38 | -33.44480 | 138.05543 | 1873 ft | 178 kts | 345° |
| 2026-05-05 06:38 | -33.43275 | 138.05181 | 1727 ft | 179 kts | 345° |
| 2026-05-05 06:39 | -33.42065 | 138.04828 | 1596 ft | 178 kts | 346° |
| 2026-05-05 06:39 | -33.40858 | 138.04477 | 1464 ft | 178 kts | 345° |
| 2026-05-05 06:39 | -33.39651 | 138.04127 | 1340 ft | 178 kts | 345° |
| 2026-05-05 06:39 | -33.38448 | 138.03771 | 1232 ft | 178 kts | 345° |
| 2026-05-05 06:40 | -33.37240 | 138.03410 | 1103 ft | 180 kts | 345° |
| 2026-05-05 06:40 | -33.36007 | 138.03049 | 1002 ft | 185 kts | 345° |
| 2026-05-05 06:40 | -33.34756 | 138.02687 | 950 ft | 186 kts | 345° |
| 2026-05-05 06:40 | -33.33522 | 138.02322 | 1057 ft | 183 kts | 345° |
| 2026-05-05 06:41 | -33.32272 | 138.01940 | 999 ft | 188 kts | 345° |
| 2026-05-05 06:41 | -33.30988 | 138.01569 | 981 ft | 190 kts | 345° |
| 2026-05-05 06:41 | -33.29702 | 138.01204 | 983 ft | 191 kts | 345° |
| 2026-05-05 06:41 | -33.28413 | 138.00826 | 979 ft | 190 kts | 345° |
| 2026-05-05 06:42 | -33.27142 | 138.00451 | 986 ft | 186 kts | 345° |
| 2026-05-05 06:42 | -33.25898 | 138.00084 | 978 ft | 183 kts | 345° |
| 2026-05-05 06:42 | -33.24681 | 137.99774 | 1020 ft | 166 kts | 0° |
| 2026-05-05 06:42 | -33.23638 | 138.00006 | 1051 ft | 147 kts | 4° |
| 2026-05-05 06:43 | -33.22803 | 137.99485 | 951 ft | 140 kts | 299° |
| 2026-05-05 06:43 | -33.22695 | 137.98405 | 868 ft | 135 kts | 254° |
| 2026-05-05 06:43 | -33.23330 | 137.97563 | 975 ft | 150 kts | 194° |
| 2026-05-05 06:43 | -33.24370 | 137.97542 | 1051 ft | 151 kts | 178° |
| 2026-05-05 06:44 | -33.25405 | 137.97719 | 1064 ft | 144 kts | 158° |
| 2026-05-05 06:44 | -33.25977 | 137.98511 | 837 ft | 127 kts | 104° |
| 2026-05-05 06:44 | -33.26006 | 137.99540 | 963 ft | 126 kts | 89° |
| 2026-05-05 06:44 | -33.25918 | 138.00606 | 968 ft | 137 kts | 86° |
| 2026-05-05 06:45 | -33.25802 | 138.01738 | 949 ft | 140 kts | 87° |
| 2026-05-05 06:45 | -33.25701 | 138.02855 | 916 ft | 132 kts | 78° |
| 2026-05-05 06:45 | -33.25129 | 138.03626 | 727 ft | 123 kts | 15° |
| 2026-05-05 06:45 | -33.24256 | 138.03703 | 630 ft | 130 kts | 354° |
| 2026-05-05 06:46 | -33.23565 | 138.03156 | 575 ft | 120 kts | 277° |
| 2026-05-05 06:46 | -33.23616 | 138.02264 | 458 ft | 100 kts | 253° |
| 2026-05-05 06:46 | -33.23765 | 138.01474 | 312 ft | 94 kts | 254° |
| 2026-05-05 06:46 | -33.23811 | 138.00695 | 140 ft | 91 kts | 266° |
| 2026-05-05 06:47 | -33.23814 | 138.00036 | 43 ft | 62 kts | 271° |
| 2026-05-05 06:47 | -33.23814 | 137.99624 | 38 ft | 40 kts | 271° |
| 2026-05-05 06:47 | -33.23802 | 137.99503 | 37 ft | 10 kts | 71° |
| 2026-05-05 06:47 | -33.23807 | 137.99726 | 41 ft | 37 kts | 90° |
| 2026-05-05 06:48 | -33.23769 | 137.99854 | 42 ft | 22 kts | 2° |
| 2026-05-05 06:48 | -33.23661 | 137.99863 | 42 ft | 6 kts | 11° |
| 2026-05-05 06:48 | -33.23630 | 137.99893 | 42 ft | 20 kts | 5° |
| 2026-05-05 06:48 | -33.23576 | 137.99881 | 42 ft | 0 kts | 185° |
| 2026-05-05 06:49 | -33.23588 | 137.99887 | 42 ft | 0 kts | 147° |
| 2026-05-05 06:59 | -33.23596 | 137.99893 | 42 ft | 11 kts | 156° |
| 2026-05-05 06:59 | -33.23704 | 137.99860 | 42 ft | 20 kts | 185° |
| 2026-05-05 06:59 | -33.23755 | 137.99854 | 42 ft | 0 kts | 185° |
| 2026-05-05 07:02 | -33.23780 | 137.99852 | 42 ft | 7 kts | 188° |
| 2026-05-05 07:02 | -33.23813 | 137.99830 | 43 ft | 0 kts | 269° |
| 2026-05-05 07:03 | -33.23813 | 137.99827 | 43 ft | 3 kts | 267° |
| 2026-05-05 07:03 | -33.23824 | 137.99387 | 43 ft | 84 kts | 261° |
| 2026-05-05 07:03 | -33.23801 | 137.98655 | 220 ft | 92 kts | 282° |
| 2026-05-05 07:03 | -33.23729 | 137.97886 | 588 ft | 94 kts | 260° |
| 2026-05-05 07:04 | -33.24153 | 137.97365 | 1023 ft | 103 kts | 177° |
| 2026-05-05 07:04 | -33.24944 | 137.97688 | 1224 ft | 132 kts | 157° |
| 2026-05-05 07:04 | -33.25740 | 137.98154 | 1851 ft | 122 kts | 154° |
| 2026-05-05 07:04 | -33.26535 | 137.98629 | 2249 ft | 133 kts | 158° |
| 2026-05-05 07:05 | -33.27407 | 137.99008 | 2729 ft | 131 kts | 162° |
| 2026-05-05 07:05 | -33.28233 | 137.99414 | 3244 ft | 130 kts | 155° |
| 2026-05-05 07:05 | -33.29075 | 137.99916 | 3567 ft | 143 kts | 163° |
| 2026-05-05 07:05 | -33.30052 | 138.00261 | 3900 ft | 149 kts | 166° |
| 2026-05-05 07:06 | -33.31044 | 138.00607 | 4272 ft | 146 kts | 166° |
| 2026-05-05 07:06 | -33.32009 | 138.00949 | 4591 ft | 144 kts | 163° |
| 2026-05-05 07:06 | -33.32875 | 138.01534 | 4833 ft | 146 kts | 152° |
| 2026-05-05 07:06 | -33.33809 | 138.01980 | 5113 ft | 142 kts | 163° |
| 2026-05-05 07:07 | -33.34627 | 138.02659 | 5291 ft | 148 kts | 138° |
| 2026-05-05 07:07 | -33.35426 | 138.03421 | 5558 ft | 147 kts | 156° |
| 2026-05-05 07:07 | -33.36374 | 138.03859 | 5804 ft | 145 kts | 165° |
| 2026-05-05 07:07 | -33.37336 | 138.04210 | 6037 ft | 145 kts | 166° |
| 2026-05-05 07:08 | -33.38301 | 138.04548 | 6263 ft | 144 kts | 167° |
| 2026-05-05 07:08 | -33.39255 | 138.04880 | 6478 ft | 145 kts | 166° |
| 2026-05-05 07:08 | -33.40224 | 138.05219 | 6686 ft | 145 kts | 167° |
| 2026-05-05 07:08 | -33.41196 | 138.05560 | 6871 ft | 146 kts | 166° |
| 2026-05-05 07:09 | -33.42174 | 138.05901 | 7051 ft | 146 kts | 167° |
| 2026-05-05 07:09 | -33.43150 | 138.06245 | 7220 ft | 147 kts | 166° |
| 2026-05-05 07:09 | -33.44133 | 138.06588 | 7378 ft | 148 kts | 166° |
| 2026-05-05 07:09 | -33.45131 | 138.06939 | 7511 ft | 150 kts | 166° |
| 2026-05-05 07:10 | -33.46139 | 138.07295 | 7620 ft | 154 kts | 166° |
| 2026-05-05 07:10 | -33.47204 | 138.07666 | 7591 ft | 165 kts | 166° |
| 2026-05-05 07:10 | -33.48330 | 138.08064 | 7572 ft | 172 kts | 166° |
| 2026-05-05 07:10 | -33.49477 | 138.08469 | 7572 ft | 176 kts | 165° |
| 2026-05-05 07:11 | -33.50663 | 138.08887 | 7569 ft | 179 kts | 166° |
| 2026-05-05 07:11 | -33.51870 | 138.09310 | 7564 ft | 182 kts | 165° |
| 2026-05-05 07:11 | -33.53090 | 138.09742 | 7568 ft | 183 kts | 166° |
| 2026-05-05 07:11 | -33.54320 | 138.10172 | 7570 ft | 185 kts | 166° |
| 2026-05-05 07:12 | -33.55558 | 138.10610 | 7565 ft | 186 kts | 166° |
| 2026-05-05 07:12 | -33.56796 | 138.11047 | 7564 ft | 186 kts | 165° |
| 2026-05-05 07:12 | -33.58035 | 138.11486 | 7562 ft | 186 kts | 166° |
| 2026-05-05 07:12 | -33.59280 | 138.11918 | 7566 ft | 188 kts | 166° |
| 2026-05-05 07:13 | -33.60565 | 138.12363 | 7571 ft | 192 kts | 163° |
| 2026-05-05 07:13 | -33.61860 | 138.12838 | 7567 ft | 198 kts | 167° |
| 2026-05-05 07:13 | -33.63189 | 138.13297 | 7571 ft | 201 kts | 166° |
| 2026-05-05 07:13 | -33.64548 | 138.13764 | 7573 ft | 205 kts | 166° |
| 2026-05-05 07:14 | -33.65909 | 138.14239 | 7567 ft | 207 kts | 166° |
| 2026-05-05 07:14 | -33.67315 | 138.14733 | 7564 ft | 209 kts | 165° |
| 2026-05-05 07:14 | -33.68716 | 138.15238 | 7565 ft | 211 kts | 166° |
| 2026-05-05 07:14 | -33.70109 | 138.15734 | 7580 ft | 212 kts | 166° |
| 2026-05-05 07:15 | -33.71521 | 138.16229 | 7618 ft | 211 kts | 166° |
| 2026-05-05 07:15 | -33.72928 | 138.16728 | 7635 ft | 211 kts | 166° |
| 2026-05-05 07:15 | -33.74341 | 138.17229 | 7642 ft | 212 kts | 166° |
| 2026-05-05 07:15 | -33.75752 | 138.17736 | 7669 ft | 211 kts | 165° |
| 2026-05-05 07:16 | -33.77168 | 138.18238 | 7674 ft | 212 kts | 165° |
| 2026-05-05 07:16 | -33.78585 | 138.18735 | 7691 ft | 212 kts | 166° |
| 2026-05-05 07:16 | -33.80002 | 138.19233 | 7712 ft | 212 kts | 165° |
| 2026-05-05 07:16 | -33.81418 | 138.19739 | 7725 ft | 212 kts | 165° |
| 2026-05-05 07:17 | -33.82833 | 138.20247 | 7745 ft | 212 kts | 166° |
| 2026-05-05 07:17 | -33.84257 | 138.20745 | 7764 ft | 213 kts | 166° |
| 2026-05-05 07:17 | -33.85658 | 138.21240 | 7775 ft | 213 kts | 166° |
| 2026-05-05 07:17 | -33.87082 | 138.21748 | 7794 ft | 213 kts | 166° |
| 2026-05-05 07:18 | -33.88502 | 138.22254 | 7810 ft | 213 kts | 166° |
| 2026-05-05 07:18 | -33.89926 | 138.22758 | 7816 ft | 213 kts | 166° |
| 2026-05-05 07:18 | -33.91354 | 138.23265 | 7832 ft | 213 kts | 166° |
| 2026-05-05 07:18 | -33.92777 | 138.23779 | 7836 ft | 213 kts | 165° |
| 2026-05-05 07:19 | -33.94205 | 138.24284 | 7849 ft | 213 kts | 166° |
| 2026-05-05 07:19 | -33.95633 | 138.24782 | 7855 ft | 213 kts | 166° |
| 2026-05-05 07:19 | -33.97037 | 138.25290 | 7859 ft | 214 kts | 166° |
| 2026-05-05 07:19 | -33.98462 | 138.25803 | 7886 ft | 213 kts | 165° |
| 2026-05-05 07:20 | -33.99890 | 138.26302 | 7890 ft | 213 kts | 166° |
| 2026-05-05 07:20 | -34.01317 | 138.26810 | 7888 ft | 214 kts | 166° |
| 2026-05-05 07:20 | -34.02264 | 138.27149 | 7898 ft | 214 kts | 166° |
| 2026-05-05 07:20 | -34.03690 | 138.27655 | 7899 ft | 214 kts | 166° |
| 2026-05-05 07:21 | -34.05598 | 138.28340 | 7908 ft | 214 kts | 166° |
| 2026-05-05 07:21 | -34.07030 | 138.28853 | 7907 ft | 214 kts | 165° |
| 2026-05-05 07:21 | -34.07981 | 138.29192 | 7915 ft | 215 kts | 165° |
| 2026-05-05 07:21 | -34.09420 | 138.29705 | 7925 ft | 215 kts | 166° |
| 2026-05-05 07:22 | -34.10828 | 138.30202 | 8210 ft | 191 kts | 166° |
| 2026-05-05 07:22 | -34.12523 | 138.30806 | 7986 ft | 217 kts | 166° |
| 2026-05-05 07:22 | -34.13550 | 138.31175 | 7581 ft | 225 kts | 165° |
| 2026-05-05 07:22 | -34.14889 | 138.31670 | 7694 ft | 188 kts | 165° |
| 2026-05-05 07:23 | -34.16075 | 138.32101 | 7609 ft | 169 kts | 166° |
| 2026-05-05 07:23 | -34.17141 | 138.32486 | 7570 ft | 155 kts | 167° |
| 2026-05-05 07:23 | -34.18204 | 138.32853 | 7611 ft | 162 kts | 167° |
| 2026-05-05 07:23 | -34.19315 | 138.33242 | 7628 ft | 170 kts | 166° |
| 2026-05-05 07:24 | -34.20478 | 138.33658 | 7617 ft | 177 kts | 166° |
| 2026-05-05 07:24 | -34.21678 | 138.34091 | 7611 ft | 182 kts | 166° |
| 2026-05-05 07:24 | -34.22906 | 138.34530 | 7613 ft | 185 kts | 166° |
| 2026-05-05 07:24 | -34.24147 | 138.34981 | 7605 ft | 188 kts | 165° |
| 2026-05-05 07:25 | -34.25403 | 138.35437 | 7606 ft | 189 kts | 166° |
| 2026-05-05 07:25 | -34.26667 | 138.35883 | 7609 ft | 190 kts | 165° |
| 2026-05-05 07:25 | -34.27918 | 138.36335 | 7609 ft | 190 kts | 166° |
| 2026-05-05 07:25 | -34.29189 | 138.36789 | 7601 ft | 192 kts | 166° |
| 2026-05-05 07:26 | -34.30472 | 138.37239 | 7611 ft | 192 kts | 165° |
| 2026-05-05 07:26 | -34.31753 | 138.37702 | 7605 ft | 192 kts | 166° |
| 2026-05-05 07:26 | -34.33038 | 138.38168 | 7600 ft | 193 kts | 166° |
| 2026-05-05 07:26 | -34.34323 | 138.38630 | 7608 ft | 192 kts | 166° |
| 2026-05-05 07:27 | -34.35607 | 138.39090 | 7608 ft | 193 kts | 166° |
| 2026-05-05 07:27 | -34.36901 | 138.39558 | 7534 ft | 196 kts | 166° |
| 2026-05-05 07:27 | -34.38203 | 138.40029 | 7561 ft | 195 kts | 166° |
| 2026-05-05 07:27 | -34.39483 | 138.40488 | 7540 ft | 196 kts | 165° |
| 2026-05-05 07:28 | -34.40787 | 138.40953 | 7547 ft | 195 kts | 166° |
| 2026-05-05 07:28 | -34.42068 | 138.41412 | 7545 ft | 194 kts | 165° |
| 2026-05-05 07:28 | -34.43358 | 138.41880 | 7547 ft | 194 kts | 165° |
| 2026-05-05 07:28 | -34.44651 | 138.42345 | 7545 ft | 194 kts | 167° |
| 2026-05-05 07:29 | -34.45647 | 138.42699 | 7546 ft | 194 kts | 166° |
| 2026-05-05 07:29 | -34.46684 | 138.43077 | 7541 ft | 193 kts | 165° |
| 2026-05-05 07:29 | -34.47975 | 138.43542 | 7545 ft | 194 kts | 165° |
| 2026-05-05 07:29 | -34.49272 | 138.44009 | 7540 ft | 194 kts | 165° |
| 2026-05-05 07:30 | -34.50565 | 138.44478 | 7543 ft | 194 kts | 165° |
| 2026-05-05 07:30 | -34.53150 | 138.45406 | 7547 ft | 194 kts | 166° |
| 2026-05-05 07:30 | -34.54446 | 138.45874 | 7543 ft | 194 kts | 166° |
| 2026-05-05 07:31 | -34.55744 | 138.46340 | 7543 ft | 194 kts | 165° |
| 2026-05-05 07:31 | -34.57035 | 138.46812 | 7547 ft | 194 kts | 166° |
| 2026-05-05 07:31 | -34.58327 | 138.47278 | 7542 ft | 194 kts | 166° |
| 2026-05-05 07:31 | -34.59601 | 138.47740 | 7546 ft | 194 kts | 165° |
| 2026-05-05 07:32 | -34.60894 | 138.48213 | 7545 ft | 194 kts | 164° |
| 2026-05-05 07:32 | -34.62190 | 138.48678 | 7542 ft | 194 kts | 165° |
| 2026-05-05 07:32 | -34.63485 | 138.49143 | 7546 ft | 194 kts | 165° |
| 2026-05-05 07:32 | -34.64780 | 138.49614 | 7544 ft | 194 kts | 165° |
| 2026-05-05 07:33 | -34.66076 | 138.50083 | 7543 ft | 194 kts | 166° |
| 2026-05-05 07:33 | -34.67367 | 138.50548 | 7547 ft | 194 kts | 165° |